Ubet, Wisconsin
Current Conditions -  °F | °C
As of 10:15 AM on Wednesday 22 Oct 2014 (Local Time) from KOEO Reporting Station
Clear Clear  
Wind Chill: 41°   Ceiling: Unl
Heat Index: 46°   Visibility: 10mi
Dew Point: 39°   Wind: 13mph
Humidity: 74%   Direction: 140°SE
Pressure: 30.23"   Gusts: 21mph
Location:  45.3599°N, 92.5447°W
Report Text: KOEO 221515Z AUTO 14011G18KT 10SM CLR 08/04 A3023 RMK AO2 T00800037
Loading
Personal Weather Stations






























Interactive Weather Map
Tropical Storm Tracking
New forecast layout! Learn more

10-Day Weather Forecast

Advertisements
Track Severe Weather on mobile